sensor_id;sensor_type;location;lat;lon;timestamp;P1;durP1;ratioP1;P2;durP2;ratioP2
43998;SDS011;51319;52.162;5.302;2024-01-27T00:00:51;20.45;;;5.50;;
43998;SDS011;51319;52.162;5.302;2024-01-27T00:03:19;27.50;;;5.20;;
43998;SDS011;51319;52.162;5.302;2024-01-27T00:05:46;21.00;;;4.03;;
43998;SDS011;51319;52.162;5.302;2024-01-27T00:08:13;28.88;;;4.88;;
43998;SDS011;51319;52.162;5.302;2024-01-27T00:10:40;25.45;;;4.57;;
43998;SDS011;51319;52.162;5.302;2024-01-27T00:13:07;23.20;;;5.38;;
43998;SDS011;51319;52.162;5.302;2024-01-27T00:15:34;30.17;;;5.03;;
43998;SDS011;51319;52.162;5.302;2024-01-27T00:18:01;29.48;;;4.65;;
43998;SDS011;51319;52.162;5.302;2024-01-27T00:20:28;27.55;;;4.97;;
43998;SDS011;51319;52.162;5.302;2024-01-27T00:22:56;42.17;;;6.35;;
43998;SDS011;51319;52.162;5.302;2024-01-27T00:25:23;32.00;;;5.70;;
43998;SDS011;51319;52.162;5.302;2024-01-27T00:27:50;26.77;;;4.55;;
43998;SDS011;51319;52.162;5.302;2024-01-27T00:30:17;29.88;;;5.18;;
43998;SDS011;51319;52.162;5.302;2024-01-27T00:32:44;34.13;;;5.68;;
43998;SDS011;51319;52.162;5.302;2024-01-27T00:35:11;20.17;;;5.18;;
43998;SDS011;51319;52.162;5.302;2024-01-27T00:37:41;31.40;;;5.22;;
43998;SDS011;51319;52.162;5.302;2024-01-27T00:40:08;29.55;;;5.25;;
43998;SDS011;51319;52.162;5.302;2024-01-27T00:42:37;30.90;;;5.53;;
43998;SDS011;51319;52.162;5.302;2024-01-27T00:45:04;36.03;;;5.60;;
43998;SDS011;51319;52.162;5.302;2024-01-27T00:47:32;34.08;;;5.68;;
43998;SDS011;51319;52.162;5.302;2024-01-27T00:49:59;26.95;;;5.22;;
43998;SDS011;51319;52.162;5.302;2024-01-27T00:52:26;30.85;;;5.28;;
43998;SDS011;51319;52.162;5.302;2024-01-27T00:54:53;36.47;;;5.55;;
43998;SDS011;51319;52.162;5.302;2024-01-27T00:57:20;37.13;;;5.63;;
43998;SDS011;51319;52.162;5.302;2024-01-27T00:59:47;28.63;;;4.93;;
43998;SDS011;51319;52.162;5.302;2024-01-27T01:02:14;32.38;;;5.22;;
43998;SDS011;51319;52.162;5.302;2024-01-27T01:04:41;25.20;;;4.53;;
43998;SDS011;51319;52.162;5.302;2024-01-27T01:07:08;27.55;;;4.85;;
43998;SDS011;51319;52.162;5.302;2024-01-27T01:09:35;21.55;;;4.85;;
43998;SDS011;51319;52.162;5.302;2024-01-27T01:12:03;27.67;;;5.35;;
43998;SDS011;51319;52.162;5.302;2024-01-27T01:14:30;37.53;;;5.72;;
43998;SDS011;51319;52.162;5.302;2024-01-27T01:16:57;39.33;;;5.75;;
43998;SDS011;51319;52.162;5.302;2024-01-27T01:19:24;37.47;;;6.15;;
43998;SDS011;51319;52.162;5.302;2024-01-27T01:21:53;40.28;;;5.95;;
43998;SDS011;51319;52.162;5.302;2024-01-27T01:24:20;31.50;;;5.68;;
43998;SDS011;51319;52.162;5.302;2024-01-27T01:26:46;29.77;;;5.70;;
43998;SDS011;51319;52.162;5.302;2024-01-27T01:29:13;33.88;;;5.75;;
43998;SDS011;51319;52.162;5.302;2024-01-27T01:31:43;36.60;;;5.40;;
43998;SDS011;51319;52.162;5.302;2024-01-27T01:34:10;31.27;;;5.60;;
43998;SDS011;51319;52.162;5.302;2024-01-27T01:36:38;31.38;;;5.07;;
43998;SDS011;51319;52.162;5.302;2024-01-27T01:39:06;30.17;;;5.22;;
43998;SDS011;51319;52.162;5.302;2024-01-27T01:41:33;32.67;;;5.35;;
43998;SDS011;51319;52.162;5.302;2024-01-27T01:44:00;33.67;;;5.72;;
43998;SDS011;51319;52.162;5.302;2024-01-27T01:46:27;39.20;;;5.13;;
43998;SDS011;51319;52.162;5.302;2024-01-27T01:48:54;20.95;;;5.43;;
43998;SDS011;51319;52.162;5.302;2024-01-27T01:51:22;24.95;;;5.28;;
43998;SDS011;51319;52.162;5.302;2024-01-27T01:53:49;21.77;;;4.60;;
43998;SDS011;51319;52.162;5.302;2024-01-27T01:56:17;32.22;;;5.30;;
43998;SDS011;51319;52.162;5.302;2024-01-27T01:58:44;30.25;;;5.60;;
43998;SDS011;51319;52.162;5.302;2024-01-27T02:01:11;34.03;;;5.55;;
43998;SDS011;51319;52.162;5.302;2024-01-27T02:03:38;22.50;;;4.57;;
43998;SDS011;51319;52.162;5.302;2024-01-27T02:06:08;32.03;;;5.63;;
43998;SDS011;51319;52.162;5.302;2024-01-27T02:08:35;28.13;;;5.13;;
43998;SDS011;51319;52.162;5.302;2024-01-27T02:11:02;32.90;;;5.50;;
43998;SDS011;51319;52.162;5.302;2024-01-27T02:13:29;27.25;;;4.88;;
43998;SDS011;51319;52.162;5.302;2024-01-27T02:15:56;23.38;;;4.57;;
43998;SDS011;51319;52.162;5.302;2024-01-27T02:18:23;30.58;;;5.75;;
43998;SDS011;51319;52.162;5.302;2024-01-27T02:20:50;27.60;;;5.00;;
43998;SDS011;51319;52.162;5.302;2024-01-27T02:23:17;29.50;;;5.80;;
43998;SDS011;51319;52.162;5.302;2024-01-27T02:25:44;39.53;;;6.20;;
43998;SDS011;51319;52.162;5.302;2024-01-27T02:28:11;30.85;;;5.88;;
43998;SDS011;51319;52.162;5.302;2024-01-27T02:30:41;20.02;;;4.38;;
43998;SDS011;51319;52.162;5.302;2024-01-27T02:33:08;43.10;;;5.28;;
43998;SDS011;51319;52.162;5.302;2024-01-27T02:35:35;40.35;;;5.28;;
43998;SDS011;51319;52.162;5.302;2024-01-27T02:38:02;30.90;;;5.10;;
43998;SDS011;51319;52.162;5.302;2024-01-27T02:40:29;36.17;;;4.97;;
43998;SDS011;51319;52.162;5.302;2024-01-27T02:42:56;32.63;;;4.68;;
43998;SDS011;51319;52.162;5.302;2024-01-27T02:45:23;28.67;;;4.57;;
43998;SDS011;51319;52.162;5.302;2024-01-27T02:47:50;26.60;;;4.43;;
43998;SDS011;51319;52.162;5.302;2024-01-27T02:50:17;31.23;;;5.47;;
43998;SDS011;51319;52.162;5.302;2024-01-27T02:52:44;30.15;;;4.75;;
43998;SDS011;51319;52.162;5.302;2024-01-27T02:55:11;36.22;;;5.30;;
43998;SDS011;51319;52.162;5.302;2024-01-27T02:57:40;24.75;;;4.53;;
43998;SDS011;51319;52.162;5.302;2024-01-27T03:00:07;28.65;;;4.30;;
43998;SDS011;51319;52.162;5.302;2024-01-27T03:02:34;23.88;;;4.78;;
43998;SDS011;51319;52.162;5.302;2024-01-27T03:05:01;36.40;;;6.40;;
43998;SDS011;51319;52.162;5.302;2024-01-27T03:07:28;26.17;;;4.57;;
43998;SDS011;51319;52.162;5.302;2024-01-27T03:09:55;32.78;;;4.75;;
43998;SDS011;51319;52.162;5.302;2024-01-27T03:12:22;30.42;;;4.75;;
43998;SDS011;51319;52.162;5.302;2024-01-27T03:14:50;40.53;;;5.70;;
43998;SDS011;51319;52.162;5.302;2024-01-27T03:17:17;32.05;;;4.18;;
43998;SDS011;51319;52.162;5.302;2024-01-27T03:19:44;26.95;;;5.00;;
43998;SDS011;51319;52.162;5.302;2024-01-27T03:22:14;30.83;;;4.77;;
43998;SDS011;51319;52.162;5.302;2024-01-27T03:24:41;31.13;;;4.80;;
43998;SDS011;51319;52.162;5.302;2024-01-27T03:27:08;29.55;;;4.53;;
43998;SDS011;51319;52.162;5.302;2024-01-27T03:29:35;29.77;;;4.65;;
43998;SDS011;51319;52.162;5.302;2024-01-27T03:32:02;28.02;;;4.40;;
43998;SDS011;51319;52.162;5.302;2024-01-27T03:34:29;29.58;;;4.53;;
43998;SDS011;51319;52.162;5.302;2024-01-27T03:36:57;30.95;;;4.30;;
43998;SDS011;51319;52.162;5.302;2024-01-27T03:39:23;34.28;;;5.82;;
43998;SDS011;51319;52.162;5.302;2024-01-27T03:41:51;31.55;;;4.75;;
43998;SDS011;51319;52.162;5.302;2024-01-27T03:44:17;36.67;;;5.07;;
43998;SDS011;51319;52.162;5.302;2024-01-27T03:46:44;34.35;;;4.20;;
43998;SDS011;51319;52.162;5.302;2024-01-27T03:49:11;22.15;;;3.70;;
43998;SDS011;51319;52.162;5.302;2024-01-27T03:51:38;21.00;;;4.60;;
43998;SDS011;51319;52.162;5.302;2024-01-27T03:54:05;27.77;;;4.97;;
43998;SDS011;51319;52.162;5.302;2024-01-27T03:56:33;30.85;;;4.95;;
43998;SDS011;51319;52.162;5.302;2024-01-27T03:58:59;30.45;;;4.88;;
43998;SDS011;51319;52.162;5.302;2024-01-27T04:01:26;22.98;;;4.35;;
43998;SDS011;51319;52.162;5.302;2024-01-27T04:03:53;28.50;;;4.45;;
43998;SDS011;51319;52.162;5.302;2024-01-27T04:06:20;32.67;;;5.10;;
43998;SDS011;51319;52.162;5.302;2024-01-27T04:08:47;26.17;;;4.97;;
43998;SDS011;51319;52.162;5.302;2024-01-27T04:11:21;27.38;;;5.35;;
43998;SDS011;51319;52.162;5.302;2024-01-27T04:13:49;30.40;;;4.95;;
43998;SDS011;51319;52.162;5.302;2024-01-27T04:16:17;32.45;;;5.90;;
43998;SDS011;51319;52.162;5.302;2024-01-27T04:18:44;37.33;;;5.10;;
43998;SDS011;51319;52.162;5.302;2024-01-27T04:21:13;30.92;;;5.57;;
43998;SDS011;51319;52.162;5.302;2024-01-27T04:23:40;29.73;;;5.93;;
43998;SDS011;51319;52.162;5.302;2024-01-27T04:26:07;34.80;;;5.57;;
43998;SDS011;51319;52.162;5.302;2024-01-27T04:28:36;33.40;;;5.55;;
43998;SDS011;51319;52.162;5.302;2024-01-27T04:31:03;39.78;;;6.60;;
43998;SDS011;51319;52.162;5.302;2024-01-27T04:33:30;38.53;;;6.05;;
43998;SDS011;51319;52.162;5.302;2024-01-27T04:36:01;41.20;;;7.18;;
43998;SDS011;51319;52.162;5.302;2024-01-27T04:38:28;36.90;;;7.05;;
43998;SDS011;51319;52.162;5.302;2024-01-27T04:40:54;45.13;;;6.93;;
43998;SDS011;51319;52.162;5.302;2024-01-27T04:43:21;35.30;;;6.25;;
43998;SDS011;51319;52.162;5.302;2024-01-27T04:45:48;42.83;;;6.40;;
43998;SDS011;51319;52.162;5.302;2024-01-27T04:48:16;36.17;;;7.10;;
43998;SDS011;51319;52.162;5.302;2024-01-27T04:50:43;49.22;;;6.82;;
43998;SDS011;51319;52.162;5.302;2024-01-27T04:53:10;36.80;;;6.25;;
43998;SDS011;51319;52.162;5.302;2024-01-27T04:55:37;32.90;;;6.68;;
43998;SDS011;51319;52.162;5.302;2024-01-27T04:58:04;37.22;;;7.35;;
43998;SDS011;51319;52.162;5.302;2024-01-27T05:00:33;29.35;;;7.05;;
43998;SDS011;51319;52.162;5.302;2024-01-27T05:03:00;39.15;;;7.30;;
43998;SDS011;51319;52.162;5.302;2024-01-27T05:05:31;44.83;;;10.77;;
43998;SDS011;51319;52.162;5.302;2024-01-27T05:08:02;33.53;;;8.13;;
43998;SDS011;51319;52.162;5.302;2024-01-27T05:10:29;29.15;;;7.85;;
43998;SDS011;51319;52.162;5.302;2024-01-27T05:12:56;35.50;;;9.15;;
43998;SDS011;51319;52.162;5.302;2024-01-27T05:15:23;29.92;;;8.80;;
43998;SDS011;51319;52.162;5.302;2024-01-27T05:17:50;35.10;;;10.35;;
43998;SDS011;51319;52.162;5.302;2024-01-27T05:20:17;39.53;;;9.73;;
43998;SDS011;51319;52.162;5.302;2024-01-27T05:22:45;29.77;;;8.63;;
43998;SDS011;51319;52.162;5.302;2024-01-27T05:25:12;39.08;;;10.40;;
43998;SDS011;51319;52.162;5.302;2024-01-27T05:27:40;42.47;;;9.88;;
43998;SDS011;51319;52.162;5.302;2024-01-27T05:30:07;43.20;;;10.35;;
43998;SDS011;51319;52.162;5.302;2024-01-27T05:32:35;34.40;;;9.55;;
43998;SDS011;51319;52.162;5.302;2024-01-27T05:35:02;36.35;;;10.13;;
43998;SDS011;51319;52.162;5.302;2024-01-27T05:37:29;37.15;;;10.73;;
43998;SDS011;51319;52.162;5.302;2024-01-27T05:39:56;39.70;;;11.48;;
43998;SDS011;51319;52.162;5.302;2024-01-27T05:42:24;31.58;;;10.15;;
43998;SDS011;51319;52.162;5.302;2024-01-27T05:44:52;34.22;;;10.95;;
43998;SDS011;51319;52.162;5.302;2024-01-27T05:47:19;30.55;;;11.13;;
43998;SDS011;51319;52.162;5.302;2024-01-27T05:49:46;37.67;;;11.30;;
43998;SDS011;51319;52.162;5.302;2024-01-27T05:52:13;43.42;;;10.95;;
43998;SDS011;51319;52.162;5.302;2024-01-27T05:54:50;35.90;;;11.18;;
43998;SDS011;51319;52.162;5.302;2024-01-27T05:57:18;31.60;;;11.63;;
43998;SDS011;51319;52.162;5.302;2024-01-27T05:59:46;38.80;;;11.88;;
43998;SDS011;51319;52.162;5.302;2024-01-27T06:02:13;42.65;;;11.48;;
43998;SDS011;51319;52.162;5.302;2024-01-27T06:04:40;38.22;;;11.85;;
43998;SDS011;51319;52.162;5.302;2024-01-27T06:07:07;38.22;;;11.95;;
43998;SDS011;51319;52.162;5.302;2024-01-27T06:09:36;46.10;;;11.60;;
43998;SDS011;51319;52.162;5.302;2024-01-27T06:12:04;33.80;;;11.55;;
43998;SDS011;51319;52.162;5.302;2024-01-27T06:14:32;39.10;;;11.23;;
43998;SDS011;51319;52.162;5.302;2024-01-27T06:16:59;45.90;;;12.32;;
43998;SDS011;51319;52.162;5.302;2024-01-27T06:19:29;41.47;;;12.52;;
43998;SDS011;51319;52.162;5.302;2024-01-27T06:21:56;41.15;;;11.48;;
43998;SDS011;51319;52.162;5.302;2024-01-27T06:24:22;52.92;;;12.93;;
43998;SDS011;51319;52.162;5.302;2024-01-27T06:26:50;48.65;;;12.20;;
43998;SDS011;51319;52.162;5.302;2024-01-27T06:29:17;45.20;;;12.80;;
43998;SDS011;51319;52.162;5.302;2024-01-27T06:31:45;46.35;;;12.93;;
43998;SDS011;51319;52.162;5.302;2024-01-27T06:34:12;41.03;;;12.77;;
43998;SDS011;51319;52.162;5.302;2024-01-27T06:36:39;43.05;;;12.57;;
43998;SDS011;51319;52.162;5.302;2024-01-27T06:39:07;35.58;;;11.95;;
43998;SDS011;51319;52.162;5.302;2024-01-27T06:41:34;41.88;;;12.93;;
43998;SDS011;51319;52.162;5.302;2024-01-27T06:44:01;40.67;;;13.35;;
43998;SDS011;51319;52.162;5.302;2024-01-27T06:46:29;59.67;;;22.50;;
43998;SDS011;51319;52.162;5.302;2024-01-27T06:48:56;40.97;;;15.20;;
43998;SDS011;51319;52.162;5.302;2024-01-27T06:51:23;31.75;;;12.90;;
43998;SDS011;51319;52.162;5.302;2024-01-27T06:53:51;31.42;;;14.20;;
43998;SDS011;51319;52.162;5.302;2024-01-27T06:56:18;42.97;;;13.75;;
43998;SDS011;51319;52.162;5.302;2024-01-27T06:58:46;39.78;;;13.52;;
43998;SDS011;51319;52.162;5.302;2024-01-27T07:01:13;45.20;;;14.00;;
43998;SDS011;51319;52.162;5.302;2024-01-27T07:03:40;52.63;;;15.77;;
43998;SDS011;51319;52.162;5.302;2024-01-27T07:06:07;72.05;;;22.90;;
43998;SDS011;51319;52.162;5.302;2024-01-27T07:08:34;73.47;;;27.65;;
43998;SDS011;51319;52.162;5.302;2024-01-27T07:11:04;68.47;;;23.73;;
43998;SDS011;51319;52.162;5.302;2024-01-27T07:13:31;60.58;;;21.65;;
43998;SDS011;51319;52.162;5.302;2024-01-27T07:15:58;45.05;;;20.38;;
43998;SDS011;51319;52.162;5.302;2024-01-27T07:18:26;52.45;;;17.63;;
43998;SDS011;51319;52.162;5.302;2024-01-27T07:20:53;46.05;;;16.60;;
43998;SDS011;51319;52.162;5.302;2024-01-27T07:23:21;43.80;;;16.50;;
43998;SDS011;51319;52.162;5.302;2024-01-27T07:25:48;55.33;;;15.30;;
43998;SDS011;51319;52.162;5.302;2024-01-27T07:28:15;43.17;;;15.05;;
43998;SDS011;51319;52.162;5.302;2024-01-27T07:30:45;44.38;;;15.18;;
43998;SDS011;51319;52.162;5.302;2024-01-27T07:33:12;50.90;;;16.10;;
43998;SDS011;51319;52.162;5.302;2024-01-27T07:35:40;56.92;;;16.13;;
43998;SDS011;51319;52.162;5.302;2024-01-27T07:38:07;52.30;;;16.15;;
43998;SDS011;51319;52.162;5.302;2024-01-27T07:40:35;48.17;;;18.15;;
43998;SDS011;51319;52.162;5.302;2024-01-27T07:43:02;51.85;;;17.35;;
43998;SDS011;51319;52.162;5.302;2024-01-27T07:45:29;52.97;;;17.58;;
43998;SDS011;51319;52.162;5.302;2024-01-27T07:47:56;41.33;;;17.08;;
43998;SDS011;51319;52.162;5.302;2024-01-27T07:50:27;58.67;;;17.80;;
43998;SDS011;51319;52.162;5.302;2024-01-27T07:52:54;59.17;;;17.80;;
43998;SDS011;51319;52.162;5.302;2024-01-27T07:55:21;52.97;;;18.30;;
43998;SDS011;51319;52.162;5.302;2024-01-27T07:57:48;40.38;;;16.95;;
43998;SDS011;51319;52.162;5.302;2024-01-27T08:00:15;48.08;;;19.13;;
43998;SDS011;51319;52.162;5.302;2024-01-27T08:02:42;61.30;;;17.65;;
43998;SDS011;51319;52.162;5.302;2024-01-27T08:05:10;53.65;;;19.27;;
43998;SDS011;51319;52.162;5.302;2024-01-27T08:07:37;45.08;;;18.98;;
43998;SDS011;51319;52.162;5.302;2024-01-27T08:10:04;58.55;;;19.92;;
43998;SDS011;51319;52.162;5.302;2024-01-27T08:12:31;53.05;;;20.05;;
43998;SDS011;51319;52.162;5.302;2024-01-27T08:14:58;51.70;;;19.98;;
43998;SDS011;51319;52.162;5.302;2024-01-27T08:17:25;47.25;;;19.88;;
43998;SDS011;51319;52.162;5.302;2024-01-27T08:19:52;49.40;;;19.58;;
43998;SDS011;51319;52.162;5.302;2024-01-27T08:22:20;51.17;;;20.70;;
43998;SDS011;51319;52.162;5.302;2024-01-27T08:24:46;43.75;;;20.02;;
43998;SDS011;51319;52.162;5.302;2024-01-27T08:27:14;48.88;;;19.00;;
43998;SDS011;51319;52.162;5.302;2024-01-27T08:29:41;54.28;;;20.38;;
43998;SDS011;51319;52.162;5.302;2024-01-27T08:32:08;54.88;;;18.48;;
43998;SDS011;51319;52.162;5.302;2024-01-27T08:34:36;41.97;;;17.88;;
43998;SDS011;51319;52.162;5.302;2024-01-27T08:37:13;46.83;;;18.38;;
43998;SDS011;51319;52.162;5.302;2024-01-27T08:39:46;48.92;;;20.45;;
43998;SDS011;51319;52.162;5.302;2024-01-27T08:42:13;46.42;;;18.38;;
43998;SDS011;51319;52.162;5.302;2024-01-27T08:44:40;51.15;;;18.85;;
43998;SDS011;51319;52.162;5.302;2024-01-27T08:47:07;43.72;;;18.77;;
43998;SDS011;51319;52.162;5.302;2024-01-27T08:49:34;40.03;;;19.02;;
43998;SDS011;51319;52.162;5.302;2024-01-27T08:52:01;42.75;;;17.17;;
43998;SDS011;51319;52.162;5.302;2024-01-27T08:54:29;41.95;;;15.95;;
43998;SDS011;51319;52.162;5.302;2024-01-27T08:56:56;37.15;;;15.02;;
43998;SDS011;51319;52.162;5.302;2024-01-27T08:59:23;41.78;;;15.05;;
43998;SDS011;51319;52.162;5.302;2024-01-27T09:01:50;32.83;;;13.50;;
43998;SDS011;51319;52.162;5.302;2024-01-27T09:04:17;33.42;;;12.93;;
43998;SDS011;51319;52.162;5.302;2024-01-27T09:06:45;29.45;;;11.65;;
43998;SDS011;51319;52.162;5.302;2024-01-27T09:09:12;25.48;;;10.80;;
43998;SDS011;51319;52.162;5.302;2024-01-27T09:11:39;29.58;;;11.40;;
43998;SDS011;51319;52.162;5.302;2024-01-27T09:14:07;37.13;;;11.73;;
43998;SDS011;51319;52.162;5.302;2024-01-27T09:16:34;27.67;;;11.38;;
43998;SDS011;51319;52.162;5.302;2024-01-27T09:19:01;35.42;;;11.38;;
43998;SDS011;51319;52.162;5.302;2024-01-27T09:21:29;32.85;;;12.63;;
43998;SDS011;51319;52.162;5.302;2024-01-27T09:23:57;46.28;;;13.70;;
43998;SDS011;51319;52.162;5.302;2024-01-27T09:26:25;35.63;;;13.32;;
43998;SDS011;51319;52.162;5.302;2024-01-27T09:28:52;41.53;;;15.50;;
43998;SDS011;51319;52.162;5.302;2024-01-27T09:31:26;44.95;;;14.30;;
43998;SDS011;51319;52.162;5.302;2024-01-27T09:33:54;106.70;;;51.40;;
43998;SDS011;51319;52.162;5.302;2024-01-27T09:36:22;51.85;;;18.63;;
43998;SDS011;51319;52.162;5.302;2024-01-27T09:38:50;39.28;;;14.98;;
43998;SDS011;51319;52.162;5.302;2024-01-27T09:41:18;34.40;;;12.25;;
43998;SDS011;51319;52.162;5.302;2024-01-27T09:43:45;32.85;;;12.65;;
43998;SDS011;51319;52.162;5.302;2024-01-27T09:46:14;36.50;;;12.70;;
43998;SDS011;51319;52.162;5.302;2024-01-27T09:48:42;38.40;;;13.00;;
43998;SDS011;51319;52.162;5.302;2024-01-27T09:51:10;34.00;;;12.15;;
43998;SDS011;51319;52.162;5.302;2024-01-27T09:53:37;29.08;;;12.02;;
43998;SDS011;51319;52.162;5.302;2024-01-27T09:56:04;23.60;;;9.25;;
43998;SDS011;51319;52.162;5.302;2024-01-27T09:58:33;27.05;;;9.48;;
43998;SDS011;51319;52.162;5.302;2024-01-27T10:01:00;22.02;;;9.15;;
43998;SDS011;51319;52.162;5.302;2024-01-27T10:03:28;22.70;;;8.60;;
43998;SDS011;51319;52.162;5.302;2024-01-27T10:05:57;22.60;;;8.73;;
43998;SDS011;51319;52.162;5.302;2024-01-27T10:08:24;21.65;;;8.95;;
43998;SDS011;51319;52.162;5.302;2024-01-27T10:10:55;31.23;;;8.57;;
43998;SDS011;51319;52.162;5.302;2024-01-27T10:16:06;22.15;;;7.80;;
43998;SDS011;51319;52.162;5.302;2024-01-27T10:21:15;24.50;;;9.00;;
43998;SDS011;51319;52.162;5.302;2024-01-27T10:23:43;24.88;;;8.57;;
43998;SDS011;51319;52.162;5.302;2024-01-27T10:26:10;21.50;;;8.23;;
43998;SDS011;51319;52.162;5.302;2024-01-27T10:28:37;20.10;;;8.50;;
43998;SDS011;51319;52.162;5.302;2024-01-27T10:31:09;30.00;;;9.70;;
43998;SDS011;51319;52.162;5.302;2024-01-27T10:33:36;22.23;;;8.57;;
43998;SDS011;51319;52.162;5.302;2024-01-27T10:36:04;24.52;;;8.48;;
43998;SDS011;51319;52.162;5.302;2024-01-27T10:38:35;25.00;;;8.13;;
43998;SDS011;51319;52.162;5.302;2024-01-27T10:41:04;25.98;;;9.23;;
43998;SDS011;51319;52.162;5.302;2024-01-27T10:43:36;26.42;;;7.75;;
43998;SDS011;51319;52.162;5.302;2024-01-27T10:46:05;23.30;;;8.55;;
43998;SDS011;51319;52.162;5.302;2024-01-27T10:48:34;26.77;;;8.77;;
43998;SDS011;51319;52.162;5.302;2024-01-27T10:51:09;24.90;;;8.10;;
43998;SDS011;51319;52.162;5.302;2024-01-27T10:53:37;29.50;;;9.07;;
43998;SDS011;51319;52.162;5.302;2024-01-27T10:56:07;25.45;;;8.68;;
43998;SDS011;51319;52.162;5.302;2024-01-27T10:58:36;27.48;;;8.15;;
43998;SDS011;51319;52.162;5.302;2024-01-27T11:01:08;25.02;;;7.82;;
43998;SDS011;51319;52.162;5.302;2024-01-27T11:03:38;24.40;;;8.60;;
43998;SDS011;51319;52.162;5.302;2024-01-27T11:06:08;27.58;;;8.10;;
43998;SDS011;51319;52.162;5.302;2024-01-27T11:08:37;19.92;;;7.65;;
43998;SDS011;51319;52.162;5.302;2024-01-27T11:11:09;20.48;;;7.47;;
43998;SDS011;51319;52.162;5.302;2024-01-27T11:13:37;28.35;;;8.50;;
43998;SDS011;51319;52.162;5.302;2024-01-27T11:16:06;20.60;;;7.82;;
43998;SDS011;51319;52.162;5.302;2024-01-27T11:18:42;24.42;;;8.18;;
43998;SDS011;51319;52.162;5.302;2024-01-27T11:21:15;22.88;;;7.63;;
43998;SDS011;51319;52.162;5.302;2024-01-27T11:23:43;20.80;;;7.63;;
43998;SDS011;51319;52.162;5.302;2024-01-27T11:26:21;23.33;;;7.70;;
43998;SDS011;51319;52.162;5.302;2024-01-27T11:28:49;20.65;;;8.18;;
43998;SDS011;51319;52.162;5.302;2024-01-27T11:31:18;20.65;;;8.45;;
43998;SDS011;51319;52.162;5.302;2024-01-27T11:33:50;24.63;;;6.97;;
43998;SDS011;51319;52.162;5.302;2024-01-27T11:36:22;25.77;;;7.85;;
43998;SDS011;51319;52.162;5.302;2024-01-27T11:38:52;18.33;;;6.93;;
43998;SDS011;51319;52.162;5.302;2024-01-27T11:41:27;25.63;;;8.15;;
43998;SDS011;51319;52.162;5.302;2024-01-27T11:43:55;28.45;;;6.88;;
43998;SDS011;51319;52.162;5.302;2024-01-27T11:46:23;24.67;;;8.60;;
43998;SDS011;51319;52.162;5.302;2024-01-27T11:48:51;16.10;;;6.68;;
43998;SDS011;51319;52.162;5.302;2024-01-27T11:51:18;23.70;;;6.60;;
43998;SDS011;51319;52.162;5.302;2024-01-27T11:53:46;24.20;;;8.02;;
43998;SDS011;51319;52.162;5.302;2024-01-27T11:56:13;21.35;;;6.18;;
43998;SDS011;51319;52.162;5.302;2024-01-27T11:58:47;18.02;;;6.45;;
43998;SDS011;51319;52.162;5.302;2024-01-27T12:01:15;21.77;;;5.70;;
43998;SDS011;51319;52.162;5.302;2024-01-27T12:03:42;23.27;;;6.32;;
43998;SDS011;51319;52.162;5.302;2024-01-27T12:06:11;19.85;;;5.63;;
43998;SDS011;51319;52.162;5.302;2024-01-27T12:08:41;15.05;;;5.72;;
43998;SDS011;51319;52.162;5.302;2024-01-27T12:11:15;22.30;;;6.63;;
43998;SDS011;51319;52.162;5.302;2024-01-27T12:13:49;23.08;;;6.68;;
43998;SDS011;51319;52.162;5.302;2024-01-27T12:16:17;22.67;;;5.53;;
43998;SDS011;51319;52.162;5.302;2024-01-27T12:18:45;16.33;;;5.70;;
43998;SDS011;51319;52.162;5.302;2024-01-27T12:21:12;24.48;;;6.00;;
43998;SDS011;51319;52.162;5.302;2024-01-27T12:23:57;24.10;;;5.38;;
43998;SDS011;51319;52.162;5.302;2024-01-27T12:26:30;22.88;;;5.53;;
43998;SDS011;51319;52.162;5.302;2024-01-27T12:28:57;21.92;;;5.65;;
43998;SDS011;51319;52.162;5.302;2024-01-27T12:31:26;19.00;;;4.75;;
43998;SDS011;51319;52.162;5.302;2024-01-27T12:33:54;17.85;;;4.43;;
43998;SDS011;51319;52.162;5.302;2024-01-27T12:36:23;14.98;;;4.18;;
43998;SDS011;51319;52.162;5.302;2024-01-27T12:41:22;22.35;;;4.90;;
43998;SDS011;51319;52.162;5.302;2024-01-27T12:43:50;15.60;;;3.95;;
43998;SDS011;51319;52.162;5.302;2024-01-27T12:46:17;29.23;;;6.38;;
43998;SDS011;51319;52.162;5.302;2024-01-27T12:48:44;36.50;;;11.70;;
43998;SDS011;51319;52.162;5.302;2024-01-27T12:51:12;15.98;;;4.85;;
43998;SDS011;51319;52.162;5.302;2024-01-27T12:53:40;23.85;;;5.03;;
43998;SDS011;51319;52.162;5.302;2024-01-27T12:56:11;21.90;;;5.13;;
43998;SDS011;51319;52.162;5.302;2024-01-27T12:58:39;14.70;;;3.97;;
43998;SDS011;51319;52.162;5.302;2024-01-27T13:01:08;12.32;;;3.65;;
43998;SDS011;51319;52.162;5.302;2024-01-27T13:03:35;27.45;;;4.75;;
43998;SDS011;51319;52.162;5.302;2024-01-27T13:06:04;29.00;;;5.20;;
43998;SDS011;51319;52.162;5.302;2024-01-27T13:08:31;16.60;;;5.47;;
43998;SDS011;51319;52.162;5.302;2024-01-27T13:10:59;17.02;;;5.40;;
43998;SDS011;51319;52.162;5.302;2024-01-27T13:13:26;18.90;;;3.20;;
43998;SDS011;51319;52.162;5.302;2024-01-27T13:15:53;22.88;;;5.88;;
43998;SDS011;51319;52.162;5.302;2024-01-27T13:18:20;27.67;;;4.78;;
43998;SDS011;51319;52.162;5.302;2024-01-27T13:20:47;17.38;;;5.07;;
43998;SDS011;51319;52.162;5.302;2024-01-27T13:23:15;19.70;;;4.65;;
43998;SDS011;51319;52.162;5.302;2024-01-27T13:25:42;14.45;;;3.53;;
43998;SDS011;51319;52.162;5.302;2024-01-27T13:28:27;13.13;;;3.20;;
43998;SDS011;51319;52.162;5.302;2024-01-27T13:30:54;22.23;;;3.85;;
43998;SDS011;51319;52.162;5.302;2024-01-27T13:33:22;19.75;;;3.42;;
43998;SDS011;51319;52.162;5.302;2024-01-27T13:35:54;15.80;;;4.03;;
43998;SDS011;51319;52.162;5.302;2024-01-27T13:38:21;18.30;;;3.70;;
43998;SDS011;51319;52.162;5.302;2024-01-27T13:40:52;17.60;;;3.42;;
43998;SDS011;51319;52.162;5.302;2024-01-27T13:43:19;20.95;;;2.90;;
43998;SDS011;51319;52.162;5.302;2024-01-27T13:45:46;16.98;;;3.50;;
43998;SDS011;51319;52.162;5.302;2024-01-27T13:48:15;16.75;;;3.38;;
43998;SDS011;51319;52.162;5.302;2024-01-27T13:50:42;26.25;;;5.55;;
43998;SDS011;51319;52.162;5.302;2024-01-27T13:53:09;17.48;;;3.45;;
43998;SDS011;51319;52.162;5.302;2024-01-27T13:55:36;21.77;;;4.15;;
43998;SDS011;51319;52.162;5.302;2024-01-27T13:58:04;17.40;;;4.38;;
43998;SDS011;51319;52.162;5.302;2024-01-27T14:00:31;23.48;;;4.18;;
43998;SDS011;51319;52.162;5.302;2024-01-27T14:03:01;15.48;;;4.15;;
43998;SDS011;51319;52.162;5.302;2024-01-27T14:05:29;20.02;;;4.65;;
43998;SDS011;51319;52.162;5.302;2024-01-27T14:07:56;17.08;;;4.10;;
43998;SDS011;51319;52.162;5.302;2024-01-27T14:10:23;18.73;;;4.68;;
43998;SDS011;51319;52.162;5.302;2024-01-27T14:12:51;20.23;;;4.78;;
43998;SDS011;51319;52.162;5.302;2024-01-27T14:15:18;20.05;;;5.20;;
43998;SDS011;51319;52.162;5.302;2024-01-27T14:17:47;19.02;;;4.57;;
43998;SDS011;51319;52.162;5.302;2024-01-27T14:20:14;26.15;;;4.88;;
43998;SDS011;51319;52.162;5.302;2024-01-27T14:22:42;27.92;;;5.93;;
43998;SDS011;51319;52.162;5.302;2024-01-27T14:25:10;18.52;;;5.25;;
43998;SDS011;51319;52.162;5.302;2024-01-27T14:27:37;24.38;;;4.82;;
43998;SDS011;51319;52.162;5.302;2024-01-27T14:30:04;20.15;;;4.60;;
43998;SDS011;51319;52.162;5.302;2024-01-27T14:32:32;18.40;;;4.95;;
43998;SDS011;51319;52.162;5.302;2024-01-27T14:35:00;23.48;;;5.63;;
43998;SDS011;51319;52.162;5.302;2024-01-27T14:37:27;24.30;;;5.55;;
43998;SDS011;51319;52.162;5.302;2024-01-27T14:39:54;22.67;;;5.30;;
43998;SDS011;51319;52.162;5.302;2024-01-27T14:42:22;17.35;;;4.97;;